createdAt,value
2022-11-19T00:01:28.024Z,16.65
2022-11-19T00:03:56.020Z,11.18
2022-11-19T00:06:26.440Z,14.88
2022-11-19T00:08:55.170Z,15.18
2022-11-19T00:11:39.512Z,13.35
2022-11-19T00:14:07.920Z,15.90
2022-11-19T00:16:35.693Z,16.25
2022-11-19T00:19:03.241Z,16.65
2022-11-19T00:21:30.690Z,16.80
2022-11-19T00:23:58.722Z,17.10
2022-11-19T00:26:26.260Z,19.35
2022-11-19T00:28:53.929Z,16.30
2022-11-19T00:31:21.663Z,18.15
2022-11-19T00:33:50.683Z,17.83
2022-11-19T00:36:18.767Z,17.17
2022-11-19T00:38:46.276Z,16.25
2022-11-19T00:41:13.791Z,17.75
2022-11-19T00:43:50.633Z,16.00
2022-11-19T00:46:25.941Z,11.18
2022-11-19T00:48:56.132Z,15.32
2022-11-19T00:51:25.309Z,17.65
2022-11-19T00:53:52.980Z,15.63
2022-11-19T00:56:23.136Z,12.77
2022-11-19T00:58:51.576Z,14.20
2022-11-19T01:01:21.362Z,14.18
2022-11-19T01:03:48.930Z,15.43
2022-11-19T01:06:19.541Z,15.43
2022-11-19T01:08:48.393Z,15.85
2022-11-19T01:11:20.319Z,16.60
2022-11-19T01:13:48.391Z,17.45
2022-11-19T01:16:18.872Z,15.63
2022-11-19T01:18:48.316Z,15.30
2022-11-19T01:21:16.814Z,10.10
2022-11-19T01:23:45.296Z,12.63
2022-11-19T01:26:13.619Z,16.55
2022-11-19T01:28:41.718Z,13.27
2022-11-19T01:31:16.756Z,15.75
2022-11-19T01:33:44.385Z,15.05
2022-11-19T01:36:15.313Z,15.02
2022-11-19T01:38:43.160Z,15.20
2022-11-19T01:41:11.346Z,14.75
2022-11-19T01:43:59.074Z,16.13
2022-11-19T01:46:30.119Z,15.23
2022-11-19T01:49:15.340Z,15.95
2022-11-19T01:51:46.958Z,13.27
2022-11-19T01:54:25.537Z,15.13
2022-11-19T01:56:56.922Z,15.73
2022-11-19T01:59:26.346Z,15.35
2022-11-19T02:01:54.075Z,14.93
2022-11-19T02:04:22.461Z,12.57
2022-11-19T02:06:50.128Z,16.27
2022-11-19T02:09:18.082Z,16.25
2022-11-19T02:11:58.037Z,15.88
2022-11-19T02:15:03.116Z,16.15
2022-11-19T02:18:01.540Z,14.70
2022-11-19T02:20:58.696Z,14.07
2022-11-19T02:23:45.954Z,14.40
2022-11-19T02:26:22.757Z,15.70
2022-11-19T02:29:21.579Z,16.48
2022-11-19T02:32:07.616Z,16.00
2022-11-19T02:34:42.692Z,17.88
2022-11-19T02:37:16.352Z,13.80
2022-11-19T02:40:06.767Z,13.35
2022-11-19T02:42:43.502Z,16.38
2022-11-19T02:45:20.640Z,16.77
2022-11-19T02:47:53.615Z,15.85
2022-11-19T02:50:29.128Z,19.90
2022-11-19T02:52:57.501Z,17.67
2022-11-19T02:55:25.352Z,16.55
2022-11-19T02:58:01.932Z,17.77
2022-11-19T03:00:49.337Z,19.85
2022-11-19T03:03:38.676Z,9.50
2022-11-19T03:06:34.549Z,16.98
2022-11-19T03:09:02.803Z,20.17
2022-11-19T03:11:32.790Z,19.08
2022-11-19T03:14:39.795Z,18.50
2022-11-19T03:17:27.958Z,18.40
2022-11-19T03:20:04.120Z,19.10
2022-11-19T03:22:39.372Z,17.38
2022-11-19T03:25:13.313Z,19.85
2022-11-19T03:27:51.253Z,19.48
2022-11-19T03:30:20.383Z,18.90
2022-11-19T03:32:54.283Z,13.15
2022-11-19T03:35:28.256Z,22.67
2022-11-19T03:37:59.826Z,20.90
2022-11-19T03:40:29.309Z,17.70
2022-11-19T03:42:58.969Z,19.50
2022-11-19T03:45:30.712Z,18.55
2022-11-19T03:48:00.976Z,19.90
2022-11-19T03:50:59.309Z,20.30
2022-11-19T03:53:27.322Z,14.60
2022-11-19T03:56:02.759Z,21.95
2022-11-19T03:58:35.012Z,23.83
2022-11-19T04:01:02.487Z,21.17
2022-11-19T04:03:29.984Z,24.25
2022-11-19T04:05:57.475Z,21.90
2022-11-19T04:08:25.004Z,22.58
2022-11-19T04:10:52.519Z,13.65
2022-11-19T04:13:20.036Z,22.80
2022-11-19T04:15:47.452Z,23.05
2022-11-19T04:18:15.077Z,18.92
2022-11-19T04:20:44.845Z,19.42
2022-11-19T04:23:12.479Z,22.88
2022-11-19T04:25:41.311Z,21.23
2022-11-19T04:28:08.856Z,22.10
2022-11-19T04:30:36.433Z,20.98
2022-11-19T04:33:03.865Z,22.35
2022-11-19T04:35:31.340Z,21.65
2022-11-19T04:37:58.892Z,21.70
2022-11-19T04:40:26.419Z,19.95
2022-11-19T04:42:53.916Z,18.85
2022-11-19T04:45:21.422Z,22.13
2022-11-19T04:47:48.881Z,22.02
2022-11-19T04:50:16.502Z,18.13
2022-11-19T04:52:44.046Z,17.77
2022-11-19T04:55:11.836Z,22.45
2022-11-19T04:57:39.338Z,19.13
2022-11-19T05:00:08.234Z,19.00
2022-11-19T05:02:35.766Z,19.17
2022-11-19T05:05:03.373Z,20.25
2022-11-19T05:07:31.009Z,20.50
2022-11-19T05:09:58.617Z,19.95
2022-11-19T05:12:26.146Z,20.42
2022-11-19T05:14:53.635Z,15.95
2022-11-19T05:17:21.224Z,20.50
2022-11-19T05:19:48.703Z,19.52
2022-11-19T05:22:16.150Z,19.50
2022-11-19T05:24:43.608Z,15.55
2022-11-19T05:27:11.080Z,18.83
2022-11-19T05:29:38.600Z,19.73
2022-11-19T05:32:06.140Z,18.98
2022-11-19T05:34:33.625Z,18.55
2022-11-19T05:37:01.176Z,12.90
2022-11-19T05:39:29.036Z,18.90
2022-11-19T05:41:56.728Z,18.35
2022-11-19T05:44:24.335Z,20.17
2022-11-19T05:46:51.851Z,19.25
2022-11-19T05:49:19.588Z,17.60
2022-11-19T05:51:47.663Z,19.45
2022-11-19T05:54:15.508Z,20.58
2022-11-19T05:56:43.011Z,19.02
2022-11-19T05:59:10.467Z,19.35
2022-11-19T06:01:38.038Z,18.63
2022-11-19T06:04:05.680Z,19.30
2022-11-19T06:06:33.207Z,18.55
2022-11-19T06:09:00.670Z,17.95
2022-11-19T06:11:44.931Z,21.77
2022-11-19T06:14:12.451Z,20.27
2022-11-19T06:16:39.947Z,18.67
2022-11-19T06:19:07.689Z,19.35
2022-11-19T06:21:35.385Z,18.90
2022-11-19T06:24:02.875Z,18.50
2022-11-19T06:26:30.770Z,19.23
2022-11-19T06:28:58.320Z,19.27
2022-11-19T06:31:25.890Z,18.33
2022-11-19T06:33:54.119Z,18.77
2022-11-19T06:36:25.178Z,18.38
2022-11-19T06:38:54.903Z,18.45
2022-11-19T06:41:22.373Z,17.38
2022-11-19T06:43:49.867Z,18.30
2022-11-19T06:46:17.690Z,17.17
2022-11-19T06:48:45.237Z,18.38
2022-11-19T06:51:12.910Z,16.98
2022-11-19T06:53:40.613Z,18.80
2022-11-19T06:56:09.204Z,17.13
2022-11-19T06:58:36.955Z,16.48
2022-11-19T07:01:04.783Z,18.45
2022-11-19T07:03:32.303Z,17.88
2022-11-19T07:06:04.620Z,18.40
2022-11-19T07:08:35.622Z,20.08
2022-11-19T07:11:24.343Z,18.92
2022-11-19T07:13:59.015Z,17.95
2022-11-19T07:16:32.431Z,16.38
2022-11-19T07:19:02.086Z,18.02
2022-11-19T07:21:30.699Z,16.92
2022-11-19T07:23:59.096Z,16.67
2022-11-19T07:26:27.257Z,17.10
2022-11-19T07:28:55.217Z,16.02
2022-11-19T07:31:24.555Z,17.85
2022-11-19T07:33:52.066Z,16.83
2022-11-19T07:36:19.845Z,16.60
2022-11-19T07:38:47.412Z,15.20
2022-11-19T07:41:32.661Z,17.15
2022-11-19T07:44:00.108Z,17.67
2022-11-19T07:46:27.623Z,14.52
2022-11-19T07:48:56.698Z,15.75
2022-11-19T07:51:25.320Z,15.60
2022-11-19T07:53:53.564Z,14.43
2022-11-19T07:56:21.471Z,16.08
2022-11-19T07:58:49.064Z,16.38
2022-11-19T08:01:20.250Z,11.35
2022-11-19T08:03:54.888Z,16.02
2022-11-19T08:06:26.260Z,12.52
2022-11-19T08:08:55.818Z,16.70
2022-11-19T08:11:24.393Z,10.55
2022-11-19T08:13:52.493Z,16.83
2022-11-19T08:16:34.698Z,17.10
2022-11-19T08:19:08.197Z,15.35
2022-11-19T08:21:35.790Z,15.00
2022-11-19T08:24:03.972Z,16.63
2022-11-19T08:26:31.565Z,15.88
2022-11-19T08:28:59.139Z,15.98
2022-11-19T08:31:26.689Z,14.38
2022-11-19T08:33:54.315Z,13.98
2022-11-19T08:36:21.784Z,15.65
2022-11-19T08:38:49.292Z,16.17
2022-11-19T08:41:34.345Z,16.83
2022-11-19T08:46:30.171Z,17.65
2022-11-19T08:48:57.735Z,18.13
2022-11-19T08:51:25.370Z,15.05
2022-11-19T08:53:53.993Z,12.88
2022-11-19T08:56:22.877Z,16.67
2022-11-19T08:58:50.558Z,17.20
2022-11-19T09:01:18.845Z,17.88
2022-11-19T09:03:46.721Z,17.00
2022-11-19T09:06:14.508Z,16.10
2022-11-19T09:08:42.850Z,16.15
2022-11-19T09:11:17.783Z,16.00
2022-11-19T09:13:45.667Z,15.48
2022-11-19T09:16:14.235Z,16.83
2022-11-19T09:18:42.360Z,16.40
2022-11-19T09:21:12.097Z,17.30
2022-11-19T09:23:41.474Z,14.60
2022-11-19T09:26:17.850Z,14.05
2022-11-19T09:28:46.602Z,16.42
2022-11-19T09:31:18.159Z,13.43
2022-11-19T09:33:51.204Z,13.70
2022-11-19T09:36:19.806Z,14.60
2022-11-19T09:38:48.797Z,16.45
2022-11-19T09:41:41.397Z,15.02
2022-11-19T09:44:29.811Z,15.45
2022-11-19T09:47:18.941Z,13.55
2022-11-19T09:49:54.699Z,12.95
2022-11-19T09:52:26.663Z,12.07
2022-11-19T09:54:57.741Z,11.23
2022-11-19T09:57:34.956Z,13.55
2022-11-19T10:00:03.373Z,12.02
2022-11-19T10:02:31.018Z,7.20
2022-11-19T10:04:59.936Z,12.07
2022-11-19T10:07:58.176Z,11.50
2022-11-19T10:10:41.571Z,13.27
2022-11-19T10:13:38.697Z,12.10
2022-11-19T10:16:11.904Z,10.27
2022-11-19T10:18:42.044Z,10.23
2022-11-19T10:21:19.425Z,12.18
2022-11-19T10:23:49.745Z,10.32
2022-11-19T10:26:19.557Z,11.05
2022-11-19T10:28:54.906Z,10.65
2022-11-19T10:31:37.681Z,9.85
2022-11-19T10:34:16.701Z,11.52
2022-11-19T10:37:07.448Z,8.00
2022-11-19T10:39:40.933Z,9.52
2022-11-19T10:42:28.709Z,10.60
2022-11-19T10:45:05.858Z,10.25
2022-11-19T10:47:47.898Z,4.75
2022-11-19T10:50:33.763Z,10.63
2022-11-19T10:53:08.464Z,9.32
2022-11-19T10:55:42.027Z,9.02
2022-11-19T10:58:19.134Z,11.05
2022-11-19T11:00:48.186Z,9.82
2022-11-19T11:03:22.023Z,8.60
2022-11-19T11:06:06.468Z,9.10
2022-11-19T11:08:34.904Z,8.90
2022-11-19T11:11:02.635Z,9.18
2022-11-19T11:13:59.145Z,8.45
2022-11-19T11:16:48.822Z,9.27
2022-11-19T11:19:23.144Z,7.40
2022-11-19T11:21:55.765Z,9.00
2022-11-19T11:27:33.960Z,5.07
2022-11-19T11:30:07.986Z,4.40
2022-11-19T11:32:35.616Z,8.63
2022-11-19T11:35:08.250Z,9.02
2022-11-19T11:37:37.696Z,8.38
2022-11-19T11:40:05.681Z,6.82
2022-11-19T11:42:33.225Z,6.50
2022-11-19T11:45:02.201Z,6.75
2022-11-19T11:47:33.127Z,6.32
2022-11-19T11:50:16.907Z,8.40
2022-11-19T11:52:55.648Z,7.35
2022-11-19T11:55:26.344Z,7.38
2022-11-19T11:57:56.502Z,7.72
2022-11-19T12:00:30.072Z,5.65
2022-11-19T12:03:03.595Z,8.20
2022-11-19T12:05:54.399Z,6.97
2022-11-19T12:08:49.364Z,8.30
2022-11-19T12:11:52.627Z,6.00
2022-11-19T12:14:28.447Z,6.72
2022-11-19T12:17:17.997Z,4.35
2022-11-19T12:19:56.495Z,6.50
2022-11-19T12:22:36.430Z,7.68
2022-11-19T12:25:10.112Z,7.50
2022-11-19T12:28:02.558Z,7.45
2022-11-19T12:31:04.033Z,7.35
2022-11-19T12:33:53.160Z,3.47
2022-11-19T12:36:29.723Z,8.13
2022-11-19T12:39:39.247Z,8.55
2022-11-19T12:42:23.898Z,6.80
2022-11-19T12:45:03.542Z,6.53
2022-11-19T12:48:08.966Z,7.05
2022-11-19T12:50:55.299Z,6.95
2022-11-19T12:53:43.789Z,8.45
2022-11-19T12:56:29.577Z,7.82
2022-11-19T12:59:03.917Z,7.40
2022-11-19T13:01:37.179Z,7.47
2022-11-19T13:04:22.499Z,7.93
2022-11-19T13:07:04.717Z,5.80
2022-11-19T13:09:38.323Z,5.15
2022-11-19T13:12:09.386Z,6.25
2022-11-19T13:14:42.296Z,8.07
2022-11-19T13:17:24.048Z,5.55
2022-11-19T13:19:57.174Z,3.63
2022-11-19T13:22:28.988Z,5.88
2022-11-19T13:25:05.329Z,4.60
2022-11-19T13:27:33.513Z,5.72
2022-11-19T13:30:08.113Z,4.95
2022-11-19T13:33:00.649Z,5.95
2022-11-19T13:35:35.282Z,5.10
2022-11-19T13:38:15.562Z,4.75
2022-11-19T13:40:48.280Z,4.03
2022-11-19T13:43:37.338Z,5.05
2022-11-19T13:46:17.327Z,4.85
2022-11-19T13:49:08.611Z,3.90
2022-11-19T13:51:43.640Z,4.25
2022-11-19T13:54:28.448Z,6.18
2022-11-19T13:56:59.490Z,4.35
2022-11-19T13:59:38.650Z,3.72
2022-11-19T14:02:12.087Z,3.33
2022-11-19T14:04:48.622Z,3.00
2022-11-19T14:07:44.643Z,3.30
2022-11-19T14:10:34.040Z,3.78
2022-11-19T14:13:39.564Z,3.00
2022-11-19T14:16:42.175Z,3.55
2022-11-19T14:19:33.035Z,3.13
2022-11-19T14:22:19.454Z,3.92
2022-11-19T14:25:04.164Z,2.70
2022-11-19T14:27:33.849Z,3.67
2022-11-19T14:30:16.771Z,4.30
2022-11-19T14:32:47.706Z,3.28
2022-11-19T14:35:30.949Z,3.28
2022-11-19T14:38:13.014Z,3.28
2022-11-19T14:40:43.949Z,3.13
2022-11-19T14:43:35.037Z,4.30
2022-11-19T14:46:02.822Z,4.32
2022-11-19T14:48:32.568Z,4.40
2022-11-19T14:51:06.108Z,3.22
2022-11-19T14:53:34.360Z,4.28
2022-11-19T14:56:09.635Z,3.38
2022-11-19T14:58:37.349Z,2.78
2022-11-19T15:01:11.172Z,3.63
2022-11-19T15:03:38.958Z,3.80
2022-11-19T15:06:08.672Z,3.45
2022-11-19T15:08:57.428Z,3.45
2022-11-19T15:11:24.873Z,2.88
2022-11-19T15:14:34.339Z,3.42
2022-11-19T15:17:08.444Z,1.85
2022-11-19T15:20:13.587Z,2.80
2022-11-19T15:22:46.815Z,2.78
2022-11-19T15:25:26.626Z,2.40
2022-11-19T15:28:07.913Z,2.85
2022-11-19T15:30:59.277Z,2.75
2022-11-19T15:33:52.486Z,2.50
2022-11-19T15:36:33.816Z,2.28
2022-11-19T15:39:14.276Z,2.85
2022-11-19T15:42:00.206Z,3.78
2022-11-19T15:44:51.264Z,2.58
2022-11-19T15:47:25.290Z,2.58
2022-11-19T15:49:54.344Z,3.05
2022-11-19T15:52:30.730Z,3.88
2022-11-19T15:55:22.524Z,2.90
2022-11-19T15:57:54.980Z,3.20
2022-11-19T16:00:24.316Z,3.30
2022-11-19T16:02:53.670Z,4.15
2022-11-19T16:05:30.587Z,4.68
2022-11-19T16:07:59.864Z,4.47
2022-11-19T16:10:31.528Z,4.68
2022-11-19T16:13:19.429Z,3.78
2022-11-19T16:16:13.096Z,4.75
2022-11-19T16:18:48.124Z,4.30
2022-11-19T16:21:21.161Z,4.47
2022-11-19T16:24:06.315Z,4.97
2022-11-19T16:26:38.593Z,3.42
2022-11-19T16:29:06.446Z,3.58
2022-11-19T16:31:34.372Z,4.68
2022-11-19T16:34:01.871Z,4.43
2022-11-19T16:36:32.088Z,4.97
2022-11-19T16:38:59.949Z,4.70
2022-11-19T16:41:45.423Z,5.00
2022-11-19T16:44:21.100Z,5.50
2022-11-19T16:46:49.248Z,3.88
2022-11-19T16:49:49.369Z,5.72
2022-11-19T16:52:35.163Z,5.13
2022-11-19T16:55:05.021Z,5.00
2022-11-19T16:57:33.566Z,4.82
2022-11-19T17:00:06.185Z,5.07
2022-11-19T17:02:40.647Z,5.95
2022-11-19T17:05:16.741Z,5.00
2022-11-19T17:07:48.604Z,6.43
2022-11-19T17:10:26.157Z,5.32
2022-11-19T17:12:56.887Z,6.25
2022-11-19T17:15:42.835Z,6.82
2022-11-19T17:18:13.366Z,7.10
2022-11-19T17:20:40.866Z,7.13
2022-11-19T17:23:34.058Z,6.90
2022-11-19T17:26:07.692Z,7.22
2022-11-19T17:28:41.034Z,7.57
2022-11-19T17:31:21.038Z,6.68
2022-11-19T17:33:52.018Z,6.15
2022-11-19T17:36:20.085Z,5.82
2022-11-19T17:38:47.612Z,7.32
2022-11-19T17:41:38.176Z,8.30
2022-11-19T17:44:27.333Z,7.43
2022-11-19T17:46:54.848Z,7.95
2022-11-19T17:49:22.488Z,8.55
2022-11-19T17:51:50.760Z,8.95
2022-11-19T17:54:18.568Z,8.35
2022-11-19T17:56:46.237Z,10.70
2022-11-19T17:59:13.770Z,7.13
2022-11-19T18:01:41.477Z,10.00
2022-11-19T18:04:12.569Z,8.20
2022-11-19T18:06:40.595Z,9.00
2022-11-19T18:09:08.564Z,8.25
2022-11-19T18:11:40.189Z,9.60
2022-11-19T18:14:10.056Z,9.77
2022-11-19T18:16:41.752Z,10.98
2022-11-19T18:19:13.525Z,9.65
2022-11-19T18:21:43.641Z,8.80
2022-11-19T18:24:12.539Z,10.80
2022-11-19T18:26:40.109Z,11.68
2022-11-19T18:29:07.550Z,11.15
2022-11-19T18:31:39.256Z,8.40
2022-11-19T18:34:06.911Z,6.88
2022-11-19T18:36:34.647Z,8.32
2022-11-19T18:39:02.170Z,7.30
2022-11-19T18:41:30.280Z,9.52
2022-11-19T18:44:15.441Z,9.70
2022-11-19T18:46:42.943Z,10.27
2022-11-19T18:49:11.745Z,10.52
2022-11-19T18:51:39.604Z,11.32
2022-11-19T18:54:07.096Z,11.30
2022-11-19T18:56:34.818Z,10.93
2022-11-19T18:59:04.916Z,10.32
2022-11-19T19:01:33.129Z,9.57
2022-11-19T19:04:00.739Z,9.70
2022-11-19T19:06:30.046Z,9.68
2022-11-19T19:08:57.565Z,11.63
2022-11-19T19:11:42.363Z,9.90
2022-11-19T19:14:09.843Z,10.25
2022-11-19T19:16:37.299Z,8.60
2022-11-19T19:19:05.119Z,11.52
2022-11-19T19:21:32.986Z,9.85
2022-11-19T19:24:01.256Z,10.27
2022-11-19T19:26:29.534Z,8.20
2022-11-19T19:28:57.708Z,8.80
2022-11-19T19:31:26.092Z,8.45
2022-11-19T19:33:55.514Z,13.38
2022-11-19T19:36:24.898Z,10.77
2022-11-19T19:38:53.076Z,9.27
2022-11-19T19:41:28.823Z,7.88
2022-11-19T19:43:58.743Z,8.00
2022-11-19T19:46:28.766Z,8.32
2022-11-19T19:48:58.374Z,7.30
2022-11-19T19:51:29.510Z,7.82
2022-11-19T19:53:57.994Z,8.52
2022-11-19T19:56:29.345Z,7.38
2022-11-19T19:59:01.858Z,7.45
2022-11-19T20:04:11.997Z,7.47
2022-11-19T20:06:44.980Z,8.27
2022-11-19T20:09:12.957Z,8.35
2022-11-19T20:11:40.923Z,7.70
2022-11-19T20:14:08.894Z,7.68
2022-11-19T20:16:42.905Z,8.15
2022-11-19T20:19:15.304Z,9.30
2022-11-19T20:22:02.026Z,7.25
2022-11-19T20:24:32.839Z,11.45
2022-11-19T20:27:02.331Z,8.38
2022-11-19T20:29:31.529Z,9.65
2022-11-19T20:31:59.528Z,7.45
2022-11-19T20:34:27.470Z,6.90
2022-11-19T20:36:57.590Z,7.18
2022-11-19T20:39:26.506Z,8.45
2022-11-19T20:42:14.520Z,8.70
2022-11-19T20:44:43.318Z,8.90
2022-11-19T20:47:11.197Z,10.13
2022-11-19T20:49:40.076Z,9.13
2022-11-19T20:52:13.876Z,8.05
2022-11-19T20:54:42.972Z,8.75
2022-11-19T20:57:15.899Z,12.65
2022-11-19T20:59:43.840Z,14.55
2022-11-19T21:02:14.522Z,12.73
2022-11-19T21:04:45.308Z,10.35
2022-11-19T21:07:13.551Z,9.60
2022-11-19T21:09:42.374Z,8.35
2022-11-19T21:12:10.338Z,7.20
2022-11-19T21:14:38.410Z,8.65
2022-11-19T21:17:06.282Z,6.45
2022-11-19T21:19:34.150Z,7.35
2022-11-19T21:22:02.024Z,9.02
2022-11-19T21:24:30.510Z,6.60
2022-11-19T21:26:58.670Z,9.20
2022-11-19T21:29:26.641Z,7.80
2022-11-19T21:31:55.631Z,8.27
2022-11-19T21:34:23.272Z,9.93
2022-11-19T21:36:50.935Z,9.15
2022-11-19T21:39:20.088Z,9.82
2022-11-19T21:41:48.047Z,13.27
2022-11-19T21:44:21.122Z,11.32
2022-11-19T21:46:49.260Z,17.58
2022-11-19T21:49:16.966Z,13.60
2022-11-19T21:51:45.552Z,11.93
2022-11-19T21:54:36.000Z,9.75
2022-11-19T21:57:13.931Z,10.15
2022-11-19T22:00:46.298Z,8.05
2022-11-19T22:06:46.628Z,8.82
2022-11-19T22:09:19.296Z,9.77
2022-11-19T22:11:56.439Z,9.45
2022-11-19T22:14:24.049Z,9.95
2022-11-19T22:16:54.454Z,10.35
2022-11-19T22:19:22.580Z,10.82
2022-11-19T22:21:50.478Z,10.68
2022-11-19T22:24:18.112Z,11.48
2022-11-19T22:26:45.624Z,9.98
2022-11-19T22:29:13.162Z,10.55
2022-11-19T22:31:40.705Z,12.07
2022-11-19T22:34:08.233Z,10.77
2022-11-19T22:36:35.746Z,10.55
2022-11-19T22:39:03.275Z,10.60
2022-11-19T22:41:31.126Z,11.73
2022-11-19T22:43:59.374Z,12.05
2022-11-19T22:46:26.944Z,12.07
2022-11-19T22:48:58.914Z,12.02
2022-11-19T22:51:26.812Z,13.52
2022-11-19T22:53:55.358Z,13.80
2022-11-19T22:56:28.306Z,12.27
2022-11-19T22:58:56.671Z,11.85
2022-11-19T23:01:27.559Z,13.30
2022-11-19T23:03:56.217Z,11.38
2022-11-19T23:06:24.800Z,12.20
2022-11-19T23:08:53.098Z,13.50
2022-11-19T23:11:43.248Z,14.55
2022-11-19T23:14:12.701Z,13.35
2022-11-19T23:16:40.551Z,14.85
2022-11-19T23:19:08.983Z,14.43
2022-11-19T23:21:36.832Z,13.07
2022-11-19T23:24:05.041Z,11.68
2022-11-19T23:26:34.190Z,12.90
2022-11-19T23:29:01.858Z,13.13
2022-11-19T23:31:32.651Z,11.45
2022-11-19T23:34:00.463Z,13.18
2022-11-19T23:36:33.225Z,13.73
2022-11-19T23:39:01.003Z,13.60
2022-11-19T23:41:28.970Z,11.68
2022-11-19T23:43:57.405Z,12.82
2022-11-19T23:46:30.771Z,13.00
2022-11-19T23:48:59.785Z,12.13
2022-11-19T23:51:33.256Z,12.23
2022-11-19T23:54:02.408Z,14.73
2022-11-19T23:56:32.157Z,13.93
2022-11-19T23:59:01.895Z,13.60
